Time;durP1;ratioP1;P1;durP2;ratioP2;P2;SDS_P1;SDS_P2;PMS_P1;PMS_P2;Temp;Humidity;BMP_temperature;BMP_pressure;BME280_temperature;BME280_humidity;BME280_pressure;Samples;Min_cycle;Max_cycle;Signal;HPM_P1;HPM_P2
2021/01/28 00:01:37;;;;;;;12.93;5.07;;;4.40;99.90;;;;;;6718200;88;20321;-74
2021/01/28 00:11:37;;;;;;;12.37;5.47;;;4.40;99.90;;;;;;6715768;88;20572;-74
2021/01/28 00:21:38;;;;;;;9.80;4.90;;;4.30;99.90;;;;;;6717004;88;20202;-74
2021/01/28 00:31:38;;;;;;;15.80;4.97;;;4.30;99.90;;;;;;6717195;88;20942;-74
2021/01/28 00:41:39;;;;;;;11.30;5.10;;;4.20;99.90;;;;;;6717489;88;20620;-73
2021/01/28 00:51:39;;;;;;;10.73;4.43;;;4.20;99.90;;;;;;6716496;88;20644;-74
2021/01/28 01:01:40;;;;;;;9.30;4.87;;;4.30;99.90;;;;;;6712467;88;20192;-73
2021/01/28 01:11:40;;;;;;;10.15;3.83;;;4.20;99.90;;;;;;6713066;88;20392;-73
2021/01/28 01:21:41;;;;;;;9.07;3.95;;;4.30;99.90;;;;;;6716054;88;20181;-73
2021/01/28 01:31:42;;;;;;;11.12;4.40;;;4.20;99.90;;;;;;6713600;88;20292;-74
2021/01/28 01:41:42;;;;;;;9.57;3.75;;;4.10;99.90;;;;;;6713440;88;20293;-73
2021/01/28 01:51:43;;;;;;;8.27;3.08;;;4.30;99.90;;;;;;6712113;88;20203;-73
2021/01/28 02:01:49;;;;;;;6.28;3.20;;;4.30;99.90;;;;;;6716616;88;20712;-73
2021/01/28 02:11:50;;;;;;;10.20;3.50;;;4.30;99.90;;;;;;6712583;88;20318;-73
2021/01/28 02:21:50;;;;;;;10.40;3.60;;;4.40;99.90;;;;;;6718750;77;20668;-73
2021/01/28 02:31:54;;;;;;;4.75;2.67;;;4.40;99.90;;;;;;6706816;88;20751;-73
2021/01/28 02:42:08;;;;;;;6.68;2.90;;;4.50;99.90;;;;;;6701349;88;20269;-73
2021/01/28 02:52:09;;;;;;;10.20;3.62;;;4.60;99.90;;;;;;6702938;88;20308;-73
2021/01/28 03:02:19;;;;;;;9.70;4.15;;;4.60;99.90;;;;;;6703095;88;20171;-73
2021/01/28 03:12:19;;;;;;;10.02;4.57;;;4.50;99.90;;;;;;6698291;88;20198;-73
2021/01/28 03:22:20;;;;;;;10.68;4.37;;;4.30;99.90;;;;;;6705584;88;20249;-73
2021/01/28 03:32:20;;;;;;;8.55;4.05;;;4.20;99.90;;;;;;6709741;88;20182;-73
2021/01/28 03:42:21;;;;;;;12.98;4.57;;;4.20;99.90;;;;;;6705019;88;20232;-74
2021/01/28 03:52:21;;;;;;;12.52;4.97;;;4.20;99.90;;;;;;6702613;88;20555;-74
2021/01/28 04:02:22;;;;;;;12.60;5.62;;;4.20;99.90;;;;;;6695732;88;20194;-73
2021/01/28 04:12:22;;;;;;;11.30;5.12;;;4.20;99.90;;;;;;6703584;88;20201;-73
2021/01/28 04:22:23;;;;;;;7.45;4.05;;;4.20;99.90;;;;;;6697981;88;20641;-74
2021/01/28 04:32:24;;;;;;;13.23;5.30;;;4.20;99.90;;;;;;6701928;88;20190;-74
2021/01/28 04:42:38;;;;;;;9.55;4.93;;;4.20;99.90;;;;;;6703226;88;20187;-75
2021/01/28 04:52:42;;;;;;;9.70;5.07;;;4.20;99.90;;;;;;6703869;88;20178;-74
2021/01/28 05:02:43;;;;;;;12.23;4.85;;;4.20;99.90;;;;;;6697191;88;20227;-74
2021/01/28 05:12:54;;;;;;;11.25;5.00;;;4.20;99.90;;;;;;6699348;88;20766;-74
2021/01/28 05:23:00;;;;;;;9.15;4.15;;;4.30;99.90;;;;;;6697869;88;20697;-74
2021/01/28 05:33:01;;;;;;;7.80;4.27;;;4.20;99.90;;;;;;6699901;88;20201;-74
2021/01/28 05:43:22;;;;;;;7.78;3.90;;;4.30;99.90;;;;;;6699373;88;20202;-74
2021/01/28 05:53:22;;;;;;;7.00;3.62;;;4.20;99.90;;;;;;6699288;88;20193;-74
2021/01/28 06:04:00;;;;;;;4.87;2.87;;;4.20;99.90;;;;;;6700348;88;20738;-74
2021/01/28 06:14:50;;;;;;;5.25;3.08;;;4.20;99.90;;;;;;6702252;88;20266;-74
2021/01/28 06:25:06;;;;;;;4.97;3.00;;;4.20;99.90;;;;;;6699125;88;20309;-75
2021/01/28 06:35:18;;;;;;;6.83;3.17;;;4.20;99.90;;;;;;6696353;88;20194;-75
2021/01/28 06:45:27;;;;;;;4.68;2.53;;;4.20;99.90;;;;;;6692371;88;20274;-74
2021/01/28 06:55:51;;;;;;;4.57;2.58;;;4.30;99.90;;;;;;6692142;88;20206;-74
2021/01/28 07:06:10;;;;;;;4.53;2.53;;;4.30;99.90;;;;;;6691784;88;20986;-74
2021/01/28 07:16:20;;;;;;;4.60;2.70;;;4.30;99.90;;;;;;6701084;88;20257;-74
2021/01/28 07:26:20;;;;;;;4.18;2.15;;;4.30;99.90;;;;;;6703349;88;20214;-74
2021/01/28 07:36:24;;;;;;;3.33;1.73;;;4.40;99.90;;;;;;6705149;88;20622;-77
2021/01/28 07:46:27;;;;;;;5.00;2.10;;;4.40;99.90;;;;;;6703721;88;20280;-75
2021/01/28 07:56:40;;;;;;;3.05;1.80;;;4.50;99.90;;;;;;6710026;88;20226;-75
2021/01/28 08:06:41;;;;;;;4.95;1.80;;;4.50;99.90;;;;;;6702717;88;20230;-74
2021/01/28 08:16:50;;;;;;;3.33;2.00;;;4.50;99.90;;;;;;6714020;77;20194;-74
2021/01/28 08:26:50;;;;;;;3.03;1.73;;;4.50;99.90;;;;;;6716079;88;20702;-74
2021/01/28 08:36:57;;;;;;;3.17;1.80;;;4.50;99.90;;;;;;6717592;88;20244;-75
2021/01/28 08:47:14;;;;;;;3.72;1.73;;;4.50;99.90;;;;;;6719469;88;20407;-74
2021/01/28 08:57:18;;;;;;;3.83;1.80;;;4.50;99.90;;;;;;6717943;88;20798;-74
2021/01/28 09:07:42;;;;;;;3.03;1.70;;;4.60;99.90;;;;;;6719102;88;20330;-75
2021/01/28 09:17:43;;;;;;;4.70;1.50;;;4.60;99.90;;;;;;6719778;88;20192;-75
2021/01/28 09:27:59;;;;;;;3.45;1.90;;;4.60;99.90;;;;;;6719372;88;20227;-74
2021/01/28 09:38:11;;;;;;;3.47;1.83;;;4.70;99.90;;;;;;6715043;88;20203;-75
2021/01/28 09:48:11;;;;;;;3.72;1.83;;;4.80;99.90;;;;;;6717261;88;20288;-76
2021/01/28 09:58:12;;;;;;;4.10;1.83;;;4.90;99.90;;;;;;6720481;88;20225;-75
2021/01/28 10:08:16;;;;;;;3.60;1.95;;;5.00;99.90;;;;;;6716410;88;20273;-77
2021/01/28 10:18:17;;;;;;;3.80;2.12;;;5.20;99.90;;;;;;6719398;88;20308;-75
2021/01/28 10:28:18;;;;;;;4.03;1.92;;;5.30;99.90;;;;;;6716639;88;20701;-75
2021/01/28 10:38:18;;;;;;;3.37;1.73;;;5.40;99.90;;;;;;6720858;88;20693;-75
2021/01/28 10:48:19;;;;;;;5.72;2.20;;;5.60;99.90;;;;;;6722097;88;20605;-75
2021/01/28 10:58:26;;;;;;;3.97;1.80;;;5.80;99.90;;;;;;6721252;88;20655;-75
2021/01/28 11:08:27;;;;;;;;;;;6.00;99.90;;;;;;6715480;88;20196;-75
2021/01/28 11:18:28;;;;;;;2.95;1.40;;;6.30;99.90;;;;;;6718335;88;20156;-74
2021/01/28 11:28:28;;;;;;;3.00;1.48;;;6.50;99.90;;;;;;6722136;88;20247;-75
2021/01/28 11:38:29;;;;;;;2.45;1.42;;;6.70;99.90;;;;;;6718348;88;20198;-74
2021/01/28 11:48:30;;;;;;;3.50;1.40;;;6.80;99.90;;;;;;6719637;88;20185;-74
2021/01/28 11:58:30;;;;;;;3.50;1.67;;;7.00;99.90;;;;;;6723783;88;20178;-75
2021/01/28 12:08:31;;;;;;;3.20;1.90;;;7.20;99.90;;;;;;6723062;88;20248;-75
2021/01/28 12:18:32;;;;;;;4.30;2.15;;;7.30;99.90;;;;;;6717488;88;20752;-76
2021/01/28 12:28:33;;;;;;;4.70;2.50;;;7.30;99.90;;;;;;6722327;88;20342;-76
2021/01/28 12:38:34;;;;;;;4.82;1.83;;;7.60;99.90;;;;;;6723751;88;20289;-76
2021/01/28 12:48:35;;;;;;;3.45;2.05;;;7.80;99.90;;;;;;6725008;88;20693;-76
2021/01/28 12:58:35;;;;;;;3.53;2.05;;;7.90;99.90;;;;;;6724165;88;20215;-76
2021/01/28 13:08:36;;;;;;;5.15;1.85;;;8.00;99.90;;;;;;6719345;88;20255;-76
2021/01/28 13:18:37;;;;;;;1.58;0.70;;;8.10;99.90;;;;;;6712235;88;20213;-75
2021/01/28 13:28:37;;;;;;;1.02;0.45;;;9.00;99.90;;;;;;6720084;88;20637;-74
2021/01/28 13:38:38;;;;;;;1.52;0.60;;;9.60;99.90;;;;;;6715176;88;20205;-76
2021/01/28 13:48:39;;;;;;;2.17;0.50;;;9.80;99.90;;;;;;6714877;88;20182;-75
2021/01/28 13:58:39;;;;;;;1.67;0.50;;;10.00;99.90;;;;;;6712075;88;20642;-75
2021/01/28 14:08:40;;;;;;;2.08;0.60;;;10.20;99.90;;;;;;6717491;88;20174;-76
2021/01/28 14:18:42;;;;;;;2.40;0.80;;;10.30;99.90;;;;;;6713323;88;20205;-75
2021/01/28 14:28:43;;;;;;;1.77;0.80;;;10.30;99.90;;;;;;6714939;88;20630;-75
2021/01/28 14:38:43;;;;;;;5.10;1.02;;;10.30;99.90;;;;;;6718120;88;20197;-75
2021/01/28 14:48:44;;;;;;;1.15;0.70;;;10.30;99.90;;;;;;6716531;88;20287;-75
2021/01/28 14:58:44;;;;;;;1.23;0.60;;;10.40;99.90;;;;;;6720221;88;20213;-75
2021/01/28 15:08:45;;;;;;;5.65;2.37;;;10.50;99.90;;;;;;6714419;88;20239;-75
2021/01/28 15:18:46;;;;;;;6.32;3.60;;;10.40;99.90;;;;;;6715821;88;20271;-74
2021/01/28 15:28:47;;;;;;;7.15;2.75;;;9.30;99.90;;;;;;6718834;88;20264;-75
2021/01/28 15:38:48;;;;;;;4.43;2.60;;;8.40;99.90;;;;;;6717642;88;20277;-75
2021/01/28 15:48:49;;;;;;;4.18;2.20;;;8.10;99.90;;;;;;6712745;88;20235;-75
2021/01/28 15:58:49;;;;;;;3.33;1.58;;;8.00;99.90;;;;;;6717363;88;20193;-75
2021/01/28 16:08:50;;;;;;;3.08;2.17;;;8.00;99.90;;;;;;6723488;88;20190;-76
2021/01/28 16:18:50;;;;;;;4.87;2.80;;;7.90;99.90;;;;;;6724379;88;20226;-76
2021/01/28 16:28:51;;;;;;;5.18;3.22;;;7.70;99.90;;;;;;6723170;88;20525;-76
2021/01/28 16:38:52;;;;;;;7.80;3.58;;;7.70;99.90;;;;;;6723860;88;20191;-76
2021/01/28 16:48:52;;;;;;;8.27;4.62;;;7.80;99.90;;;;;;6728499;88;20324;-76
2021/01/28 16:58:53;;;;;;;5.80;3.25;;;7.70;99.90;;;;;;6720096;88;20695;-76
2021/01/28 17:08:53;;;;;;;4.82;2.70;;;7.70;99.90;;;;;;6719173;88;20251;-76
2021/01/28 17:18:54;;;;;;;5.05;3.03;;;7.60;99.90;;;;;;6711515;88;20203;-74
2021/01/28 17:28:54;;;;;;;5.90;3.20;;;7.60;99.90;;;;;;6711162;88;20247;-75
2021/01/28 17:38:56;;;;;;;4.03;2.97;;;7.60;99.90;;;;;;6711313;88;20605;-74
2021/01/28 17:48:57;;;;;;;4.68;3.33;;;7.70;99.90;;;;;;6714058;88;20185;-74
2021/01/28 17:58:58;;;;;;;5.85;3.58;;;7.50;99.90;;;;;;6719930;88;20247;-75
2021/01/28 18:08:58;;;;;;;6.50;3.72;;;7.50;99.90;;;;;;6718106;88;20239;-77
2021/01/28 18:18:59;;;;;;;5.87;3.43;;;7.50;99.90;;;;;;6723094;88;20208;-77
2021/01/28 18:28:59;;;;;;;5.35;2.42;;;7.50;99.90;;;;;;6716149;88;21032;-76
2021/01/28 18:39:00;;;;;;;7.30;3.92;;;7.50;99.90;;;;;;6719289;88;20198;-76
2021/01/28 18:49:00;;;;;;;5.77;3.20;;;7.50;99.90;;;;;;6710327;88;20718;-77
2021/01/28 18:59:01;;;;;;;5.50;2.80;;;7.30;99.90;;;;;;6713182;88;20572;-77
2021/01/28 19:09:03;;;;;;;6.45;3.62;;;7.40;99.90;;;;;;6713520;88;20586;-77
2021/01/28 19:19:03;;;;;;;6.75;3.95;;;7.20;99.90;;;;;;6716245;88;20614;-77
2021/01/28 19:29:04;;;;;;;4.90;2.80;;;7.20;99.90;;;;;;6716450;88;20211;-77
2021/01/28 19:39:06;;;;;;;5.03;2.43;;;7.20;99.90;;;;;;6717385;88;20347;-76
2021/01/28 19:49:07;;;;;;;4.40;2.47;;;7.20;99.90;;;;;;6716410;88;20571;-77
2021/01/28 19:59:07;;;;;;;4.10;2.12;;;7.20;99.90;;;;;;6715303;88;20261;-76
2021/01/28 20:09:08;;;;;;;5.93;2.87;;;7.10;99.90;;;;;;6714253;88;21029;-77
2021/01/28 20:19:08;;;;;;;4.82;2.72;;;7.10;99.90;;;;;;6714382;88;20714;-77
2021/01/28 20:29:09;;;;;;;4.97;3.28;;;7.10;99.90;;;;;;6717091;88;20203;-77
2021/01/28 20:39:09;;;;;;;6.25;3.78;;;7.20;99.90;;;;;;6721179;88;20194;-77
2021/01/28 20:49:10;;;;;;;6.15;3.72;;;7.30;99.90;;;;;;6711264;88;20330;-76
2021/01/28 20:59:10;;;;;;;9.93;5.40;;;7.30;99.90;;;;;;6712860;88;20186;-75
2021/01/28 21:09:16;;;;;;;6.03;3.80;;;7.20;99.90;;;;;;6723042;88;20319;-76
2021/01/28 21:19:17;;;;;;;7.40;4.00;;;7.20;99.90;;;;;;6720342;88;20193;-76
2021/01/28 21:29:17;;;;;;;7.97;4.43;;;7.30;99.90;;;;;;6721493;88;20211;-75
2021/01/28 21:39:18;;;;;;;7.93;4.70;;;7.30;99.90;;;;;;6714693;88;20230;-75
2021/01/28 21:49:18;;;;;;;8.03;4.37;;;7.30;99.90;;;;;;6709530;88;20178;-75
2021/01/28 21:59:19;;;;;;;5.90;3.30;;;7.50;99.90;;;;;;6715451;88;20925;-75
2021/01/28 22:09:20;;;;;;;5.72;3.12;;;7.40;99.90;;;;;;6719350;88;20506;-76
2021/01/28 22:19:20;;;;;;;6.10;3.25;;;7.50;99.90;;;;;;6717420;88;20189;-75
2021/01/28 22:29:21;;;;;;;9.20;4.37;;;7.60;99.90;;;;;;6719782;88;20223;-75
2021/01/28 22:39:22;;;;;;;9.50;4.78;;;7.50;99.90;;;;;;6720245;88;20288;-76
2021/01/28 22:49:23;;;;;;;7.57;4.37;;;7.60;99.90;;;;;;6722052;88;20284;-75
2021/01/28 22:59:24;;;;;;;10.77;5.25;;;7.50;99.90;;;;;;6718140;88;21168;-76
2021/01/28 23:09:24;;;;;;;8.20;4.70;;;7.60;99.90;;;;;;6719570;88;20258;-75
2021/01/28 23:19:25;;;;;;;9.45;4.90;;;7.50;99.90;;;;;;6727731;88;20292;-76
2021/01/28 23:29:25;;;;;;;10.45;4.57;;;7.40;99.90;;;;;;6727627;88;20284;-76
2021/01/28 23:39:26;;;;;;;9.35;4.78;;;7.50;99.90;;;;;;6733742;88;21160;-75
2021/01/28 23:49:26;;;;;;;11.65;5.03;;;7.40;99.90;;;;;;6730454;88;20648;-75
2021/01/28 23:59:27;;;;;;;8.45;4.22;;;7.40;99.90;;;;;;6727664;88;20189;-75
